Time;durP1;ratioP1;P1;durP2;ratioP2;P2;SDS_P1;SDS_P2;PMS_P1;PMS_P2;Temp;Humidity;BMP_temperature;BMP_pressure;BME280_temperature;BME280_humidity;BME280_pressure;Samples;Min_cycle;Max_cycle;Signal;HPM_P1;HPM_P2
2023/11/03 00:00:47;;;;;;;9.00;5.60;;;;;;;3.95;88.84;94315.45;106594;1274;25529;-79
2023/11/03 00:03:36;;;;;;;8.70;5.10;;;;;;;4.21;89.05;94307.10;106587;1275;24274;-78
2023/11/03 00:06:04;;;;;;;15.50;7.10;;;;;;;4.42;88.78;94300.50;106737;1275;22528;-78
2023/11/03 00:08:33;;;;;;;10.20;5.30;;;;;;;4.60;88.40;94300.21;106674;1274;22791;-79
2023/11/03 00:11:04;;;;;;;9.20;5.20;;;;;;;4.76;88.34;94292.27;106672;1274;25287;-79
2023/11/03 00:13:34;;;;;;;10.80;6.30;;;;;;;4.91;88.00;94291.67;106681;1274;22632;-79
2023/11/03 00:16:03;;;;;;;10.30;6.20;;;;;;;5.05;87.61;94293.34;106601;1275;25400;-80
2023/11/03 00:18:31;;;;;;;9.70;5.10;;;;;;;5.15;87.31;94294.55;106716;1275;22523;-78
2023/11/03 00:21:00;;;;;;;9.20;5.70;;;;;;;5.24;87.13;94289.67;106742;1274;25352;-79
2023/11/03 00:23:28;;;;;;;8.70;5.10;;;;;;;5.33;86.82;94290.37;106614;1275;24272;-79
2023/11/03 00:25:57;;;;;;;7.60;5.00;;;;;;;5.43;86.77;94290.70;106749;1274;22524;-79
2023/11/03 00:28:25;;;;;;;7.70;4.20;;;;;;;5.54;86.55;94289.61;106556;1274;24224;-80
2023/11/03 00:30:53;;;;;;;6.70;4.20;;;;;;;5.61;86.29;94298.54;106626;1274;24229;-79
2023/11/03 00:33:21;;;;;;;5.60;4.10;;;;;;;5.67;85.85;94304.70;106661;1275;22533;-79
2023/11/03 00:35:50;;;;;;;9.40;5.50;;;;;;;5.75;85.83;94302.10;106558;1275;25408;-79
2023/11/03 00:38:18;;;;;;;10.90;6.10;;;;;;;5.84;85.77;94306.60;106720;1274;22988;-79
2023/11/03 00:40:47;;;;;;;7.80;4.70;;;;;;;5.93;85.52;94297.21;106714;1251;24363;-78
2023/11/03 00:43:15;;;;;;;7.90;5.30;;;;;;;5.97;84.94;94299.73;106689;1274;25383;-79
2023/11/03 00:45:43;;;;;;;7.00;4.70;;;;;;;6.00;84.87;94305.09;106724;1274;25350;-79
2023/11/03 00:48:11;;;;;;;9.90;4.60;;;;;;;6.01;84.76;94305.41;106707;1275;22532;-79
2023/11/03 00:50:39;;;;;;;6.00;4.60;;;;;;;6.01;84.49;94303.67;106647;1274;22532;-78
2023/11/03 00:53:08;;;;;;;8.10;5.00;;;;;;;6.05;84.68;94304.09;106653;1274;22516;-78
2023/11/03 00:55:36;;;;;;;8.80;5.20;;;;;;;6.09;84.30;94312.41;106572;1275;24412;-78
2023/11/03 00:58:04;;;;;;;6.70;4.60;;;;;;;6.09;84.17;94307.34;106684;1274;22596;-78
2023/11/03 01:00:35;;;;;;;11.20;5.10;;;;;;;6.10;84.50;94295.63;106707;1275;22734;-78
2023/11/03 01:03:04;;;;;;;6.00;4.30;;;;;;;6.06;84.00;94290.98;106603;1274;22540;-78
2023/11/03 01:05:32;;;;;;;7.30;4.80;;;;;;;6.00;84.02;94294.08;106646;1262;24225;-78
2023/11/03 01:08:01;;;;;;;7.90;5.00;;;;;;;5.97;84.00;94294.33;106728;1275;25338;-79
2023/11/03 01:10:29;;;;;;;8.30;5.20;;;;;;;5.92;83.97;94296.51;106706;1274;24271;-78
2023/11/03 01:12:57;;;;;;;8.50;5.70;;;;;;;5.90;84.21;94300.38;106591;1274;22559;-79
2023/11/03 01:15:25;;;;;;;8.00;5.10;;;;;;;5.84;84.00;94296.46;106675;1275;22540;-78
2023/11/03 01:17:54;;;;;;;7.30;5.40;;;;;;;5.80;84.17;94299.71;106583;1274;24381;-79
2023/11/03 01:20:27;;;;;;;8.60;6.00;;;;;;;5.75;84.27;94293.38;106615;1274;25332;-79
2023/11/03 01:22:58;;;;;;;8.80;5.90;;;;;;;5.72;84.30;94288.55;106728;1274;22524;-78
2023/11/03 01:25:28;;;;;;;7.80;5.20;;;;;;;5.70;84.08;94273.75;106697;1274;25533;-78
2023/11/03 01:27:57;;;;;;;9.80;5.80;;;;;;;5.66;84.17;94270.70;106594;1262;25373;-79
2023/11/03 01:30:27;;;;;;;8.00;4.90;;;;;;;5.63;84.30;94262.90;106655;1275;24063;-79
2023/11/03 01:32:56;;;;;;;7.10;4.30;;;;;;;5.61;84.52;94257.38;106649;1274;24719;-79
2023/11/03 01:35:24;;;;;;;8.30;4.10;;;;;;;5.54;84.53;94248.43;106763;1274;22802;-78
2023/11/03 01:37:53;;;;;;;6.20;4.00;;;;;;;5.48;84.80;94245.09;106601;1275;22523;-78
2023/11/03 01:40:21;;;;;;;6.00;4.00;;;;;;;5.41;85.00;94243.84;106734;1274;22518;-78
2023/11/03 01:42:49;;;;;;;6.20;4.00;;;;;;;5.33;85.48;94239.80;106653;1275;22529;-79
2023/11/03 01:45:18;;;;;;;6.40;4.10;;;;;;;5.28;85.13;94234.32;106708;1274;22611;-79
2023/11/03 01:47:46;;;;;;;8.30;4.70;;;;;;;5.26;85.48;94237.68;106726;1274;22557;-78
2023/11/03 01:50:17;;;;;;;14.90;7.20;;;;;;;5.22;86.01;94243.86;106789;1274;22528;-79
2023/11/03 01:52:46;;;;;;;18.10;10.50;;;;;;;5.19;86.19;94243.39;106420;1275;22519;-79
2023/11/03 01:55:16;;;;;;;11.50;5.80;;;;;;;5.19;86.03;94240.61;106720;1273;22548;-79
2023/11/03 01:57:45;;;;;;;7.30;4.30;;;;;;;5.17;86.77;94243.59;106749;1274;22649;-79
2023/11/03 02:00:14;;;;;;;4.60;3.60;;;;;;;5.18;86.55;94235.04;106681;1275;24352;-78
2023/11/03 02:02:43;;;;;;;9.60;4.00;;;;;;;5.20;86.38;94235.34;106574;1269;22631;-79
2023/11/03 02:05:12;;;;;;;6.80;3.90;;;;;;;5.24;86.37;94226.91;106796;1275;22529;-79
2023/11/03 02:07:40;;;;;;;7.00;3.90;;;;;;;5.25;86.24;94216.44;106546;1275;22525;-79
2023/11/03 02:10:09;;;;;;;8.00;4.30;;;;;;;5.24;86.10;94215.92;106684;1275;26612;-78
2023/11/03 02:12:37;;;;;;;5.50;3.80;;;;;;;5.23;85.74;94204.62;106674;1275;24275;-79
2023/11/03 02:15:05;;;;;;;5.50;3.60;;;;;;;5.17;85.47;94198.98;106525;1274;22530;-79
2023/11/03 02:17:36;;;;;;;6.40;3.70;;;;;;;5.09;85.61;94196.02;106775;1275;25335;-78
2023/11/03 02:20:06;;;;;;;5.30;3.50;;;;;;;5.02;85.64;94198.41;106652;1275;25436;-78
2023/11/03 02:22:35;;;;;;;8.80;4.80;;;;;;;4.96;85.64;94197.64;106719;1275;25415;-79
2023/11/03 02:25:03;;;;;;;8.80;6.00;;;;;;;4.89;85.61;94201.98;106700;1274;24414;-79
2023/11/03 02:27:31;;;;;;;6.30;4.80;;;;;;;4.89;86.15;94197.45;106638;1274;25294;-79
2023/11/03 02:30:00;;;;;;;6.10;4.00;;;;;;;4.92;86.16;94184.52;106686;1275;22570;-79
2023/11/03 02:32:28;;;;;;;8.60;4.60;;;;;;;4.90;86.05;94181.06;106636;1274;25408;-79
2023/11/03 02:34:56;;;;;;;4.40;3.30;;;;;;;4.87;85.70;94175.89;106777;1274;22538;-78
2023/11/03 02:37:25;;;;;;;6.40;3.40;;;;;;;4.75;85.16;94172.63;106675;1274;25393;-78
2023/11/03 02:39:55;;;;;;;4.60;3.20;;;;;;;4.64;85.05;94173.88;106759;1274;22646;-78
2023/11/03 02:42:23;;;;;;;6.20;3.30;;;;;;;4.56;84.99;94172.65;106650;1274;22539;-79
2023/11/03 02:44:51;;;;;;;7.80;3.50;;;;;;;4.47;85.09;94163.91;106690;1274;23335;-78
2023/11/03 02:47:19;;;;;;;6.00;3.70;;;;;;;4.44;85.49;94151.42;106727;1274;22527;-78
2023/11/03 02:49:48;;;;;;;6.90;3.60;;;;;;;4.40;85.74;94148.38;106669;1274;25250;-79
2023/11/03 02:52:17;;;;;;;7.30;3.50;;;;;;;4.34;85.79;94149.86;106601;1268;24282;-78
2023/11/03 02:54:45;;;;;;;6.80;3.90;;;;;;;4.31;85.73;94149.59;106636;1275;22522;-78
2023/11/03 02:57:13;;;;;;;6.50;3.00;;;;;;;4.28;85.58;94158.85;106693;1274;24261;-78
2023/11/03 02:59:44;;;;;;;5.30;3.40;;;;;;;4.15;85.12;94163.25;106696;1274;24286;-79
2023/11/03 03:02:12;;;;;;;5.20;3.50;;;;;;;3.98;85.24;94160.76;106709;1274;24847;-79
2023/11/03 03:04:40;;;;;;;6.50;3.50;;;;;;;3.90;85.63;94157.73;106703;1274;22525;-78
2023/11/03 03:07:08;;;;;;;5.00;3.30;;;;;;;3.88;86.29;94158.30;106642;1274;22939;-78
2023/11/03 03:09:37;;;;;;;4.30;2.90;;;;;;;3.85;86.38;94165.99;106712;1274;24356;-78
2023/11/03 03:12:06;;;;;;;4.60;2.40;;;;;;;3.81;86.51;94155.11;106589;1274;22538;-79
2023/11/03 03:14:35;;;;;;;6.10;4.10;;;;;;;3.76;86.85;94143.19;106763;1274;22543;-79
2023/11/03 03:17:03;;;;;;;8.40;5.00;;;;;;;3.75;87.21;94136.26;106689;1274;22523;-78
2023/11/03 03:19:31;;;;;;;9.30;4.80;;;;;;;3.75;87.42;94133.11;106698;1274;25712;-79
2023/11/03 03:21:59;;;;;;;7.30;4.10;;;;;;;3.74;88.33;94128.80;106771;1274;24349;-79
2023/11/03 03:24:27;;;;;;;7.60;4.40;;;;;;;3.73;88.55;94122.55;106744;1274;22521;-78
2023/11/03 03:26:55;;;;;;;8.00;4.80;;;;;;;3.76;88.76;94121.80;106706;1274;25293;-79
2023/11/03 03:29:24;;;;;;;4.20;3.00;;;;;;;3.78;88.71;94109.42;106774;1274;24270;-79
2023/11/03 03:31:52;;;;;;;3.70;2.70;;;;;;;3.86;88.50;94098.68;106709;1274;23909;-78
2023/11/03 03:34:20;;;;;;;7.90;3.70;;;;;;;3.91;88.84;94093.02;106723;1274;22533;-79
2023/11/03 03:36:49;;;;;;;5.00;3.20;;;;;;;3.94;88.55;94095.94;106761;1274;22476;-79
2023/11/03 03:39:17;;;;;;;6.20;4.10;;;;;;;3.96;88.42;94095.21;106679;1274;22519;-79
2023/11/03 03:41:51;;;;;;;5.50;3.30;;;;;;;4.02;89.11;94085.88;106615;1274;25408;-78
2023/11/03 03:44:19;;;;;;;9.10;4.60;;;;;;;4.04;88.74;94081.83;106720;1274;23238;-79
2023/11/03 03:46:47;;;;;;;5.20;3.50;;;;;;;4.08;88.57;94078.98;106687;1274;22538;-79
2023/11/03 03:49:15;;;;;;;7.40;4.60;;;;;;;4.10;88.85;94083.82;106621;1274;24246;-78
2023/11/03 03:51:43;;;;;;;6.20;4.30;;;;;;;4.16;88.82;94075.54;106595;1274;22555;-79
2023/11/03 03:54:11;;;;;;;8.80;5.40;;;;;;;4.21;88.69;94061.16;106673;1274;22868;-78
2023/11/03 03:56:39;;;;;;;7.20;4.70;;;;;;;4.25;88.57;94049.78;106749;1274;24215;-79
2023/11/03 03:59:08;;;;;;;11.00;5.80;;;;;;;4.32;88.62;94034.16;106724;1274;24218;-78
2023/11/03 04:01:36;;;;;;;7.20;4.90;;;;;;;4.41;88.61;94019.02;106686;1274;22534;-78
2023/11/03 04:04:04;;;;;;;10.00;5.00;;;;;;;4.47;88.38;94007.38;106756;1274;25257;-79
2023/11/03 04:06:33;;;;;;;6.60;4.30;;;;;;;4.49;88.19;94010.82;106615;1254;24426;-79
2023/11/03 04:09:01;;;;;;;15.60;7.80;;;;;;;4.54;88.30;94010.91;106701;1274;25391;-78
2023/11/03 04:11:29;;;;;;;20.30;10.00;;;;;;;4.65;88.27;94000.41;106723;1274;22461;-77
2023/11/03 04:13:57;;;;;;;13.60;8.70;;;;;;;4.72;87.96;94002.14;106753;1274;22521;-76
2023/11/03 04:16:36;;;;;;;16.50;8.10;;;;;;;4.76;87.70;93998.76;106610;1274;24279;-78
2023/11/03 04:19:04;;;;;;;7.80;4.90;;;;;;;4.81;87.58;93985.23;106595;1274;23300;-78
2023/11/03 04:21:32;;;;;;;9.00;5.70;;;;;;;4.84;87.29;93983.95;106631;1274;25239;-79
2023/11/03 04:24:00;;;;;;;7.40;4.90;;;;;;;4.87;87.31;93978.64;106695;1274;25676;-78
2023/11/03 04:26:29;;;;;;;8.80;5.40;;;;;;;4.91;87.28;93974.55;106714;1275;24406;-78
2023/11/03 04:28:57;;;;;;;10.10;6.30;;;;;;;4.92;87.02;93976.44;106567;1274;24259;-78
2023/11/03 04:31:25;;;;;;;15.70;8.10;;;;;;;4.92;86.85;93978.71;106663;1274;26709;-79
2023/11/03 04:33:53;;;;;;;7.60;5.40;;;;;;;4.92;86.83;93976.10;106695;1274;22517;-79
2023/11/03 04:36:22;;;;;;;9.10;5.60;;;;;;;4.90;86.72;93977.04;106548;1274;25376;-79
2023/11/03 04:38:50;;;;;;;10.40;5.80;;;;;;;4.91;86.84;93970.55;106607;1274;22962;-78
2023/11/03 04:41:18;;;;;;;9.10;4.80;;;;;;;4.93;86.78;93970.86;106696;1274;22944;-79
2023/11/03 04:43:46;;;;;;;7.80;4.80;;;;;;;4.89;86.53;93963.80;106569;1264;25651;-78
2023/11/03 04:46:14;;;;;;;6.00;4.20;;;;;;;4.84;86.69;93963.73;106688;1274;22519;-79
2023/11/03 04:48:46;;;;;;;7.20;4.50;;;;;;;4.82;86.76;93961.36;106684;1275;22531;-79
2023/11/03 04:51:14;;;;;;;8.10;4.30;;;;;;;4.81;86.40;93960.50;106723;1259;24526;-78
2023/11/03 04:53:43;;;;;;;7.40;4.40;;;;;;;4.69;85.96;93957.28;106764;1274;22537;-79
2023/11/03 04:56:11;;;;;;;7.80;4.50;;;;;;;4.55;86.11;93954.45;106631;1274;22510;-78
2023/11/03 04:58:40;;;;;;;7.90;4.60;;;;;;;4.42;86.19;93950.38;106700;1274;25252;-79
2023/11/03 05:01:10;;;;;;;8.90;4.60;;;;;;;4.33;86.33;93942.91;106592;1274;22539;-78
2023/11/03 05:03:38;;;;;;;7.90;3.60;;;;;;;4.23;86.37;93934.25;106604;1274;25367;-79
2023/11/03 05:06:07;;;;;;;7.10;4.70;;;;;;;4.11;86.37;93931.37;106802;1274;22541;-79
2023/11/03 05:08:35;;;;;;;7.20;4.50;;;;;;;4.01;86.67;93932.27;106685;1275;23153;-79
2023/11/03 05:11:03;;;;;;;7.90;4.70;;;;;;;3.93;86.65;93925.30;106577;1274;22526;-79
2023/11/03 05:13:31;;;;;;;64.70;27.90;;;;;;;3.84;86.64;93923.90;106771;1275;22527;-78
2023/11/03 05:15:59;;;;;;;43.00;23.10;;;;;;;3.76;86.94;93920.41;106733;1274;25351;-79
2023/11/03 05:18:28;;;;;;;15.40;9.30;;;;;;;3.67;87.39;93919.70;106766;1275;22544;-79
2023/11/03 05:20:56;;;;;;;8.00;5.90;;;;;;;3.72;88.27;93917.88;106767;1274;23315;-78
2023/11/03 05:23:24;;;;;;;14.20;8.30;;;;;;;3.87;88.95;93909.77;106713;1274;24323;-78
2023/11/03 05:25:53;;;;;;;15.10;8.00;;;;;;;4.01;88.96;93897.48;106730;1274;25292;-78
2023/11/03 05:28:21;;;;;;;15.30;9.90;;;;;;;4.14;88.96;93894.40;106699;1274;24225;-79
2023/11/03 05:30:49;;;;;;;9.80;6.60;;;;;;;4.22;88.71;93886.42;106685;1274;22516;-79
2023/11/03 05:33:18;;;;;;;9.30;5.80;;;;;;;4.34;88.91;93889.45;106712;1274;22547;-76
2023/11/03 05:35:47;;;;;;;6.50;4.40;;;;;;;4.48;88.70;93892.28;106748;1264;22522;-78
2023/11/03 05:38:15;;;;;;;8.20;5.80;;;;;;;4.57;88.42;93890.85;106713;1274;22597;-78
2023/11/03 05:40:44;;;;;;;9.20;5.60;;;;;;;4.65;88.44;93884.41;106614;1274;25331;-78
2023/11/03 05:43:12;;;;;;;7.10;4.80;;;;;;;4.74;88.06;93887.14;106708;1274;25326;-79
2023/11/03 05:45:40;;;;;;;8.80;4.90;;;;;;;4.80;87.93;93897.13;106685;1274;25072;-78
2023/11/03 05:48:08;;;;;;;9.00;4.90;;;;;;;4.88;87.86;93894.33;106556;1274;24398;-79
2023/11/03 05:50:36;;;;;;;5.70;4.50;;;;;;;4.97;87.69;93889.91;106722;1275;25436;-78
2023/11/03 05:53:04;;;;;;;9.10;6.40;;;;;;;5.09;87.51;93894.32;106645;1272;24979;-77
2023/11/03 05:55:32;;;;;;;7.10;5.00;;;;;;;5.19;87.27;93895.80;106748;1274;22660;-78
2023/11/03 05:58:00;;;;;;;11.60;5.60;;;;;;;5.27;87.01;93892.30;106661;1275;24252;-79
2023/11/03 06:00:30;;;;;;;7.50;4.90;;;;;;;5.34;86.63;93886.02;106663;1274;25465;-78
2023/11/03 06:02:59;;;;;;;11.20;6.80;;;;;;;5.36;86.37;93885.27;106752;1274;22520;-79
2023/11/03 06:05:28;;;;;;;8.00;5.30;;;;;;;5.41;86.33;93894.04;106745;1275;22526;-79
2023/11/03 06:07:56;;;;;;;7.90;5.50;;;;;;;5.44;86.00;93898.15;106756;1274;25369;-78
2023/11/03 06:10:24;;;;;;;7.20;4.70;;;;;;;5.48;85.98;93892.63;106633;1274;22523;-79
2023/11/03 06:12:53;;;;;;;8.00;4.60;;;;;;;5.51;85.81;93891.15;106602;1274;24085;-79
2023/11/03 06:15:21;;;;;;;6.30;4.10;;;;;;;5.54;85.74;93887.22;106671;1275;25466;-79
2023/11/03 06:17:49;;;;;;;8.90;4.60;;;;;;;5.55;85.66;93887.91;106795;1274;24262;-79
2023/11/03 06:20:17;;;;;;;7.90;4.80;;;;;;;5.60;85.63;93877.83;106684;1259;22542;-78
2023/11/03 06:22:45;;;;;;;16.60;10.20;;;;;;;5.66;85.56;93864.06;106728;1274;22645;-79
2023/11/03 06:25:13;;;;;;;11.30;5.60;;;;;;;5.73;85.53;93868.06;106639;1274;22760;-79
2023/11/03 06:27:41;;;;;;;8.20;5.10;;;;;;;5.83;85.57;93865.16;106581;1274;22603;-78
2023/11/03 06:30:10;;;;;;;15.50;10.80;;;;;;;5.94;85.36;93859.11;106648;1274;22569;-77
2023/11/03 06:32:38;;;;;;;11.90;7.50;;;;;;;6.03;85.06;93853.63;106342;1275;344961;-78
2023/11/03 06:35:07;;;;;;;12.20;9.80;;;;;;;6.12;84.86;93854.42;106677;1274;22524;-79
2023/11/03 06:37:35;;;;;;;10.90;6.50;;;;;;;6.22;84.53;93858.13;106714;1274;22533;-77
2023/11/03 06:40:04;;;;;;;12.70;7.50;;;;;;;6.35;84.16;93856.52;106726;1275;22923;-79
2023/11/03 06:42:32;;;;;;;9.30;6.10;;;;;;;6.50;84.64;93847.86;106791;1275;24900;-78
2023/11/03 06:45:00;;;;;;;9.90;6.50;;;;;;;6.62;84.51;93834.73;106778;1275;25226;-79
2023/11/03 06:47:29;;;;;;;14.40;7.80;;;;;;;6.73;84.37;93827.58;106731;1274;25416;-78
2023/11/03 06:49:57;;;;;;;75.70;60.80;;;;;;;6.83;84.12;93822.17;106700;1274;22682;-78
2023/11/03 06:52:25;;;;;;;43.90;34.30;;;;;;;6.91;83.62;93829.25;106660;1274;22657;-77
2023/11/03 06:54:53;;;;;;;27.30;20.30;;;;;;;7.00;82.89;93838.41;106497;1275;25416;-78
2023/11/03 06:57:22;;;;;;;11.20;8.90;;;;;;;7.07;82.69;93846.21;106709;1275;22542;-78
2023/11/03 06:59:51;;;;;;;10.80;7.90;;;;;;;7.13;82.52;93836.21;106756;1275;22538;-78
2023/11/03 07:02:19;;;;;;;11.70;9.80;;;;;;;7.20;82.63;93827.26;106744;1275;25440;-78
2023/11/03 07:04:48;;;;;;;24.60;21.00;;;;;;;7.25;82.40;93834.77;106617;1274;24296;-79
2023/11/03 07:07:20;;;;;;;12.10;8.90;;;;;;;7.30;82.47;93846.33;106741;1275;24226;-78
2023/11/03 07:09:48;;;;;;;13.90;8.30;;;;;;;7.33;82.11;93833.96;106689;1274;26548;-78
2023/11/03 07:12:17;;;;;;;10.10;7.10;;;;;;;7.33;81.77;93848.13;106696;1275;22533;-78
2023/11/03 07:14:47;;;;;;;10.40;6.80;;;;;;;7.34;81.73;93852.46;106713;1274;22551;-79
2023/11/03 07:17:16;;;;;;;7.60;5.30;;;;;;;7.36;81.83;93833.16;106622;1274;23967;-78
2023/11/03 07:19:45;;;;;;;11.90;5.50;;;;;;;7.40;81.85;93828.14;106779;1274;25643;-79
2023/11/03 07:22:15;;;;;;;7.00;4.40;;;;;;;7.45;82.15;93819.03;106758;1275;22640;-78
2023/11/03 07:24:44;;;;;;;6.50;4.30;;;;;;;7.50;82.31;93825.52;106777;1274;25098;-78
2023/11/03 07:27:12;;;;;;;6.90;4.80;;;;;;;7.54;82.19;93822.42;106733;1275;26532;-78
2023/11/03 07:29:41;;;;;;;6.80;4.70;;;;;;;7.57;82.06;93806.21;106695;1274;25254;-79
2023/11/03 07:32:09;;;;;;;6.90;4.20;;;;;;;7.65;82.14;93803.31;106664;1274;25501;-78
2023/11/03 07:34:37;;;;;;;6.70;4.70;;;;;;;7.72;82.38;93814.59;106747;1275;25612;-79
2023/11/03 07:37:06;;;;;;;9.00;4.70;;;;;;;7.82;81.91;93797.77;106491;1275;22519;-78
2023/11/03 07:39:34;;;;;;;6.20;4.60;;;;;;;7.92;81.78;93794.61;106738;1274;22540;-78
2023/11/03 07:42:04;;;;;;;7.40;4.60;;;;;;;8.04;81.91;93787.17;106719;1275;25508;-80
2023/11/03 07:44:32;;;;;;;6.30;4.10;;;;;;;8.15;81.82;93793.73;106733;1275;25741;-78
2023/11/03 07:47:02;;;;;;;6.50;3.90;;;;;;;8.25;81.81;93792.48;106643;1274;22621;-79
2023/11/03 07:49:34;;;;;;;7.70;4.50;;;;;;;8.35;81.34;93789.11;106575;1274;22516;-78
2023/11/03 07:52:02;;;;;;;5.60;4.10;;;;;;;8.40;80.74;93784.39;106732;1274;22530;-79
2023/11/03 07:54:30;;;;;;;6.00;4.10;;;;;;;8.44;80.31;93776.18;106682;1274;22781;-78
2023/11/03 07:57:00;;;;;;;9.70;4.80;;;;;;;8.48;80.61;93778.98;106784;1274;22656;-79
2023/11/03 07:59:28;;;;;;;8.00;5.30;;;;;;;8.54;80.46;93776.66;106641;1275;23916;-79
2023/11/03 08:01:56;;;;;;;5.90;4.50;;;;;;;8.57;80.22;93781.98;106717;1274;24215;-78
2023/11/03 08:04:25;;;;;;;11.00;7.20;;;;;;;8.62;80.32;93789.33;106693;1274;24438;-78
2023/11/03 08:06:55;;;;;;;10.40;5.50;;;;;;;8.69;80.38;93795.88;106751;1274;22593;-79
2023/11/03 08:09:27;;;;;;;7.40;4.80;;;;;;;8.76;80.32;93787.35;106738;1274;22524;-79
2023/11/03 08:11:56;;;;;;;8.80;4.50;;;;;;;8.79;79.66;93778.44;106648;1275;22523;-79
2023/11/03 08:14:24;;;;;;;20.60;17.10;;;;;;;8.81;79.47;93789.95;106616;1274;25383;-79
2023/11/03 08:16:53;;;;;;;9.20;6.70;;;;;;;8.85;79.56;93805.56;106595;1275;24101;-79
2023/11/03 08:19:21;;;;;;;7.60;5.10;;;;;;;8.91;79.76;93806.40;106695;1274;22523;-79
2023/11/03 08:21:49;;;;;;;7.70;4.20;;;;;;;8.99;79.81;93807.30;106703;1274;22601;-79
2023/11/03 08:24:18;;;;;;;5.30;3.10;;;;;;;9.04;79.81;93812.33;106777;1275;24470;-79
2023/11/03 08:26:46;;;;;;;6.40;3.90;;;;;;;9.09;79.32;93811.08;106726;1274;25313;-80
2023/11/03 08:29:15;;;;;;;5.20;3.40;;;;;;;9.15;79.50;93820.13;106632;1265;24848;-80
2023/11/03 08:31:45;;;;;;;4.90;3.20;;;;;;;9.21;79.10;93815.84;106816;1274;22533;-78
2023/11/03 08:34:14;;;;;;;8.20;3.90;;;;;;;9.30;78.43;93802.48;106659;1262;25501;-78
2023/11/03 08:36:43;;;;;;;6.50;4.20;;;;;;;9.42;78.01;93801.27;106715;1274;22673;-79
2023/11/03 08:39:11;;;;;;;4.80;3.80;;;;;;;9.50;77.96;93791.09;106736;1274;22517;-78
2023/11/03 08:42:01;;;;;;;6.50;4.90;;;;;;;9.56;77.74;93798.04;106743;1275;25771;-79
2023/11/03 08:44:29;;;;;;;6.60;4.40;;;;;;;9.65;77.65;93800.28;106696;1275;23896;-78
2023/11/03 08:46:57;;;;;;;6.30;4.10;;;;;;;9.71;77.46;93795.27;106609;1275;25262;-78
2023/11/03 08:49:27;;;;;;;6.20;4.50;;;;;;;9.76;76.98;93774.15;106649;1274;25284;-78
2023/11/03 08:51:56;;;;;;;5.40;4.10;;;;;;;9.81;77.08;93761.65;106826;1274;22526;-78
2023/11/03 08:54:24;;;;;;;8.10;4.50;;;;;;;9.84;76.84;93758.73;106611;1275;25294;-77
2023/11/03 08:56:53;;;;;;;9.40;4.50;;;;;;;9.90;77.13;93758.61;106727;1275;25304;-78
2023/11/03 08:59:22;;;;;;;5.60;4.30;;;;;;;9.95;76.81;93753.98;106603;1266;22601;-78
2023/11/03 09:01:55;;;;;;;6.10;4.10;;;;;;;9.99;76.76;93740.66;106623;1275;24254;-79
2023/11/03 09:04:24;;;;;;;5.80;4.20;;;;;;;10.04;77.15;93729.16;106708;1274;22652;-79
2023/11/03 09:06:53;;;;;;;6.50;4.10;;;;;;;10.11;76.97;93724.79;106780;1275;24411;-78
2023/11/03 09:09:22;;;;;;;8.50;4.60;;;;;;;10.19;76.74;93721.09;106727;1274;24382;-79
2023/11/03 09:11:50;;;;;;;6.40;4.40;;;;;;;10.30;77.06;93727.98;106747;1253;22549;-78
2023/11/03 09:14:18;;;;;;;5.60;3.80;;;;;;;10.43;77.14;93723.67;106618;1275;22537;-78
2023/11/03 09:16:46;;;;;;;7.20;3.70;;;;;;;10.60;76.44;93710.16;106649;1271;22533;-78
2023/11/03 09:19:15;;;;;;;5.30;3.20;;;;;;;10.83;76.76;93704.33;106690;1252;22549;-77
2023/11/03 09:21:43;;;;;;;6.20;3.10;;;;;;;11.08;76.87;93711.84;106698;1275;22513;-78
2023/11/03 09:24:14;;;;;;;5.90;3.30;;;;;;;11.44;77.24;93696.80;106652;1274;22790;-77
2023/11/03 09:26:42;;;;;;;4.90;3.50;;;;;;;11.89;77.47;93695.50;106674;1275;23890;-78
2023/11/03 09:29:11;;;;;;;4.00;2.70;;;;;;;12.39;76.18;93701.59;106657;1274;25255;-77
2023/11/03 09:31:39;;;;;;;6.50;4.40;;;;;;;12.89;75.84;93701.92;106683;1275;22520;-78
2023/11/03 09:34:11;;;;;;;6.60;4.90;;;;;;;13.41;74.90;93697.27;106631;1275;25528;-77
2023/11/03 09:36:39;;;;;;;11.70;9.60;;;;;;;14.02;68.90;93682.23;106644;1275;22527;-77
2023/11/03 09:39:09;;;;;;;4.30;3.00;;;;;;;14.40;69.71;93670.64;106619;1275;24249;-77
2023/11/03 09:41:59;;;;;;;4.30;3.00;;;;;;;14.67;68.88;93668.81;106692;1275;24471;-77
2023/11/03 09:44:27;;;;;;;4.30;2.90;;;;;;;14.90;66.61;93678.09;106813;1275;22520;-78
2023/11/03 09:47:00;;;;;;;3.80;2.90;;;;;;;15.03;65.48;93679.70;106815;1275;22647;-77
2023/11/03 09:49:29;;;;;;;4.50;3.10;;;;;;;15.11;65.71;93672.08;106660;1274;22536;-78
2023/11/03 09:52:03;;;;;;;4.50;3.20;;;;;;;15.16;64.98;93664.84;106731;1275;24289;-78
2023/11/03 09:54:35;;;;;;;5.70;2.90;;;;;;;15.21;64.81;93652.14;106704;1275;24268;-77
2023/11/03 09:57:08;;;;;;;3.00;2.20;;;;;;;15.26;64.08;93651.77;106644;1274;22572;-77
2023/11/03 09:59:39;;;;;;;3.80;2.70;;;;;;;15.35;62.61;93642.62;106634;1273;22522;-77
2023/11/03 10:02:11;;;;;;;2.90;2.50;;;;;;;15.49;61.04;93627.36;106491;1274;24481;-77
2023/11/03 10:04:42;;;;;;;2.60;2.20;;;;;;;15.67;62.49;93628.27;106733;1275;22918;-76
2023/11/03 10:07:12;;;;;;;3.80;2.70;;;;;;;15.80;60.40;93612.98;106683;1275;22514;-77
2023/11/03 10:09:45;;;;;;;4.00;2.90;;;;;;;15.96;60.94;93603.34;106716;1275;22532;-78
2023/11/03 10:12:17;;;;;;;3.40;2.70;;;;;;;16.26;62.15;93592.13;106622;1274;22525;-77
2023/11/03 10:14:46;;;;;;;4.80;2.60;;;;;;;16.42;61.01;93593.98;106721;1275;27708;-77
2023/11/03 10:17:16;;;;;;;7.10;3.60;;;;;;;16.52;61.49;93597.00;106674;1274;25264;-78
2023/11/03 10:19:46;;;;;;;4.20;3.20;;;;;;;16.50;60.45;93594.32;106670;1275;22658;-78
2023/11/03 10:22:14;;;;;;;3.30;2.80;;;;;;;16.43;60.55;93598.91;106692;1275;22521;-77
2023/11/03 10:24:42;;;;;;;3.30;2.90;;;;;;;16.35;60.92;93591.34;106645;1275;22532;-77
2023/11/03 10:27:11;;;;;;;3.20;2.80;;;;;;;16.25;59.78;93576.94;106627;1275;22650;-77
2023/11/03 10:29:42;;;;;;;5.10;3.20;;;;;;;16.13;60.15;93579.39;106725;1274;25253;-77
2023/11/03 10:32:10;;;;;;;3.80;2.80;;;;;;;16.02;60.65;93579.30;106683;1275;25377;-79
2023/11/03 10:34:41;;;;;;;6.60;2.80;;;;;;;15.91;59.78;93579.39;106684;1274;24263;-78
2023/11/03 10:37:14;;;;;;;3.50;2.80;;;;;;;15.79;60.50;93583.10;106746;1274;24244;-78
2023/11/03 10:39:46;;;;;;;4.80;3.00;;;;;;;15.66;60.54;93589.84;106664;1275;22872;-78
2023/11/03 10:42:20;;;;;;;4.00;3.10;;;;;;;15.51;60.34;93582.38;106649;1274;24270;-77
2023/11/03 10:44:50;;;;;;;6.80;2.80;;;;;;;15.37;61.14;93572.02;106681;1275;25293;-80
2023/11/03 10:47:26;;;;;;;3.70;2.80;;;;;;;15.26;61.31;93564.23;106717;1275;24293;-75
2023/11/03 10:50:06;;;;;;;6.00;3.00;;;;;;;15.19;60.89;93561.05;106693;1275;23901;-77
2023/11/03 10:52:47;;;;;;;5.10;3.10;;;;;;;15.14;61.50;93564.76;106611;1274;23937;-76
2023/11/03 10:55:25;;;;;;;3.80;3.20;;;;;;;15.09;61.64;93562.80;106686;1274;22525;-76
2023/11/03 10:57:58;;;;;;;4.20;3.30;;;;;;;15.04;61.61;93572.50;106821;1274;22538;-78
2023/11/03 11:00:54;;;;;;;8.30;3.60;;;;;;;15.02;61.46;93575.10;106658;1275;22523;-77
2023/11/03 11:03:41;;;;;;;7.50;4.00;;;;;;;15.08;62.03;93571.50;106611;1275;22951;-78
2023/11/03 11:06:33;;;;;;;6.10;3.90;;;;;;;15.19;62.38;93562.62;106706;1275;22650;-77
2023/11/03 11:09:34;;;;;;;10.40;5.70;;;;;;;15.32;61.61;93556.61;106688;1271;22736;-77
2023/11/03 11:12:03;;;;;;;7.90;4.90;;;;;;;15.43;61.27;93542.00;106667;1275;24211;-76
2023/11/03 11:14:37;;;;;;;8.50;4.60;;;;;;;15.54;60.32;93532.88;106652;1275;22531;-75
2023/11/03 11:17:10;;;;;;;7.40;4.10;;;;;;;15.64;61.10;93539.98;106509;1275;25250;-77
2023/11/03 11:19:45;;;;;;;6.70;4.50;;;;;;;15.73;60.86;93545.07;106635;1275;24249;-77
2023/11/03 11:22:18;;;;;;;21.70;7.80;;;;;;;15.79;60.66;93552.10;106479;1274;22645;-76
2023/11/03 11:24:47;;;;;;;13.00;6.40;;;;;;;15.81;60.40;93542.16;106734;1275;24199;-76
2023/11/03 11:27:25;;;;;;;7.30;4.10;;;;;;;15.81;60.31;93543.61;106742;1275;22630;-78
2023/11/03 11:30:12;;;;;;;5.70;4.10;;;;;;;15.84;60.96;93540.37;106748;1275;23917;-77
2023/11/03 11:32:51;;;;;;;7.40;4.10;;;;;;;15.98;60.84;93526.91;106727;1275;22528;-76
2023/11/03 11:35:23;;;;;;;5.10;3.50;;;;;;;16.29;60.91;93516.73;106688;1275;24301;-77
2023/11/03 11:39:22;;;;;;;7.70;3.40;;;;;;;16.62;57.76;93493.13;103947;1305;546832;-77
2023/11/03 11:41:59;;;;;;;4.70;3.60;;;;;;;16.69;57.44;93487.79;106316;1286;24075;-76